Página principal
METAR-TAF:

METAR-TAF

Aeroportos :

Aeroporto Internacional de Monastir - Habib Bourguiba

Monastir, Tunísia

latitude: 35-46N, longitude: 010-45E, altura: 2 m

Observação actual do tempo

O boletim foi feito há 43 minutos, às 12:00 UTC
Vento 9 kt de norte
Temperatura 30°C
Humidade 66%
Pressão 1015 hPa
Visibilidade 10 km ou mais
sem nuvens abaixo de 1500 metros e sem cumulonimbus

METAR: DTMB 201200Z 36009KT CAVOK 30/23 Q1015 NOSIG

Hora: 13:43 (12:43 UTC)

Previsão

O boletim foi feito há 1 hora e 43 minutos, às 11:00 UTC
Previsão válida de 20 às 12 UTC a 21 às 12 UTC
Vento 10 kt de norte
Visibilidade 10 km ou mais
sem nuvens abaixo de 1500 metros e sem cumulonimbus
Tornando-se
de 20 às 12 UTC a 20 às 14 UTC
Vento 10 kt de este
Tornando-se
de 20 às 18 UTC a 20 às 20 UTC
Vento 10 kt de sul

TAF: DTMB 201100Z 2012/2112 01010KT CAVOK BECMG 2012/2014 09010KT BECMG 2018/2020 17010KT

Observações e previsões do tempo de mais de 4000 aeroportos (mensagens METAR e TAF).

As estações disponíveis são os pontos amarelos e vermelhos sobre o mapa.

Mova o rato sobre o mapa para ver o nome da estação.

Depois clique no ponto para visualizar as observações e previsões meteorológicas.

Para alterar o mapa : clique nos botões verdes com uma cruz preta para aumentar o zoom; no botão verde com uma pitada de zoom; ou nas setas verdes para mapas adjacentes.


METAR-TAF: